sensor_id;sensor_type;location;lat;lon;timestamp;P1;durP1;ratioP1;P2;durP2;ratioP2
72904;SDS011;61048;52.162;4.516;2022-11-04T00:02:05;2.72;;;0.20;;
72904;SDS011;61048;52.162;4.516;2022-11-04T00:04:31;3.13;;;0.50;;
72904;SDS011;61048;52.162;4.516;2022-11-04T00:07:00;2.55;;;0.40;;
72904;SDS011;61048;52.162;4.516;2022-11-04T00:09:47;1.60;;;0.25;;
72904;SDS011;61048;52.162;4.516;2022-11-04T00:12:13;1.75;;;0.10;;
72904;SDS011;61048;52.162;4.516;2022-11-04T00:14:48;0.73;;;0.20;;
72904;SDS011;61048;52.162;4.516;2022-11-04T00:17:15;1.95;;;0.20;;
72904;SDS011;61048;52.162;4.516;2022-11-04T00:19:46;3.22;;;0.30;;
72904;SDS011;61048;52.162;4.516;2022-11-04T00:22:32;1.98;;;0.25;;
72904;SDS011;61048;52.162;4.516;2022-11-04T00:25:17;0.60;;;0.13;;
72904;SDS011;61048;52.162;4.516;2022-11-04T00:28:05;1.45;;;0.40;;
72904;SDS011;61048;52.162;4.516;2022-11-04T00:30:53;2.38;;;0.40;;
72904;SDS011;61048;52.162;4.516;2022-11-04T00:33:21;1.77;;;0.50;;
72904;SDS011;61048;52.162;4.516;2022-11-04T00:35:50;0.88;;;0.13;;
72904;SDS011;61048;52.162;4.516;2022-11-04T00:38:19;1.52;;;0.20;;
72904;SDS011;61048;52.162;4.516;2022-11-04T00:40:46;1.90;;;0.20;;
72904;SDS011;61048;52.162;4.516;2022-11-04T00:43:13;2.42;;;0.10;;
72904;SDS011;61048;52.162;4.516;2022-11-04T00:45:40;1.00;;;0.13;;
72904;SDS011;61048;52.162;4.516;2022-11-04T00:48:07;2.35;;;0.35;;
72904;SDS011;61048;52.162;4.516;2022-11-04T00:50:34;0.68;;;0.15;;
72904;SDS011;61048;52.162;4.516;2022-11-04T00:53:01;2.20;;;0.20;;
72904;SDS011;61048;52.162;4.516;2022-11-04T00:55:30;3.17;;;0.20;;
72904;SDS011;61048;52.162;4.516;2022-11-04T00:57:57;1.40;;;0.17;;
72904;SDS011;61048;52.162;4.516;2022-11-04T01:00:24;1.27;;;0.05;;
72904;SDS011;61048;52.162;4.516;2022-11-04T01:02:51;1.38;;;0.20;;
72904;SDS011;61048;52.162;4.516;2022-11-04T01:05:18;1.23;;;0.30;;
72904;SDS011;61048;52.162;4.516;2022-11-04T01:07:45;0.80;;;0.50;;
72904;SDS011;61048;52.162;4.516;2022-11-04T01:10:12;1.48;;;0.15;;
72904;SDS011;61048;52.162;4.516;2022-11-04T01:12:40;0.93;;;0.20;;
72904;SDS011;61048;52.162;4.516;2022-11-04T01:15:08;1.90;;;0.20;;
72904;SDS011;61048;52.162;4.516;2022-11-04T01:17:35;1.90;;;0.13;;
72904;SDS011;61048;52.162;4.516;2022-11-04T01:20:02;1.55;;;0.20;;
72904;SDS011;61048;52.162;4.516;2022-11-04T01:22:29;1.58;;;0.17;;
72904;SDS011;61048;52.162;4.516;2022-11-04T01:24:56;1.30;;;0.20;;
72904;SDS011;61048;52.162;4.516;2022-11-04T01:27:23;2.58;;;0.20;;
72904;SDS011;61048;52.162;4.516;2022-11-04T01:29:51;1.67;;;0.13;;
72904;SDS011;61048;52.162;4.516;2022-11-04T01:32:18;1.77;;;0.30;;
72904;SDS011;61048;52.162;4.516;2022-11-04T01:34:45;1.88;;;0.30;;
72904;SDS011;61048;52.162;4.516;2022-11-04T01:37:12;2.03;;;0.25;;
72904;SDS011;61048;52.162;4.516;2022-11-04T01:39:39;1.73;;;0.10;;
72904;SDS011;61048;52.162;4.516;2022-11-04T01:42:06;0.80;;;0.20;;
72904;SDS011;61048;52.162;4.516;2022-11-04T01:44:46;0.93;;;0.10;;
72904;SDS011;61048;52.162;4.516;2022-11-04T01:47:28;1.75;;;0.52;;
72904;SDS011;61048;52.162;4.516;2022-11-04T01:50:02;3.08;;;0.40;;
72904;SDS011;61048;52.162;4.516;2022-11-04T01:52:33;1.05;;;0.15;;
72904;SDS011;61048;52.162;4.516;2022-11-04T01:55:05;0.75;;;0.20;;
72904;SDS011;61048;52.162;4.516;2022-11-04T02:00:08;1.42;;;0.30;;
72904;SDS011;61048;52.162;4.516;2022-11-04T02:02:36;1.67;;;0.30;;
72904;SDS011;61048;52.162;4.516;2022-11-04T02:05:09;1.70;;;0.35;;
72904;SDS011;61048;52.162;4.516;2022-11-04T02:07:36;2.17;;;0.20;;
72904;SDS011;61048;52.162;4.516;2022-11-04T02:10:03;0.98;;;0.13;;
72904;SDS011;61048;52.162;4.516;2022-11-04T02:12:31;2.08;;;0.30;;
72904;SDS011;61048;52.162;4.516;2022-11-04T02:15:20;1.48;;;0.20;;
72904;SDS011;61048;52.162;4.516;2022-11-04T02:27:22;1.10;;;0.50;;
72904;SDS011;61048;52.162;4.516;2022-11-04T02:30:04;1.67;;;0.60;;
72904;SDS011;61048;52.162;4.516;2022-11-04T02:32:41;1.10;;;0.40;;
72904;SDS011;61048;52.162;4.516;2022-11-04T02:35:19;0.52;;;0.10;;
72904;SDS011;61048;52.162;4.516;2022-11-04T02:37:59;1.30;;;0.17;;
72904;SDS011;61048;52.162;4.516;2022-11-04T02:40:35;1.52;;;0.30;;
72904;SDS011;61048;52.162;4.516;2022-11-04T02:43:08;2.20;;;0.73;;
72904;SDS011;61048;52.162;4.516;2022-11-04T02:45:42;1.85;;;0.20;;
72904;SDS011;61048;52.162;4.516;2022-11-04T02:48:19;1.25;;;0.20;;
72904;SDS011;61048;52.162;4.516;2022-11-04T02:50:53;1.10;;;0.40;;
72904;SDS011;61048;52.162;4.516;2022-11-04T02:53:28;0.93;;;0.10;;
72904;SDS011;61048;52.162;4.516;2022-11-04T02:56:01;1.73;;;0.22;;
72904;SDS011;61048;52.162;4.516;2022-11-04T02:58:32;1.30;;;0.40;;
72904;SDS011;61048;52.162;4.516;2022-11-04T03:01:05;2.03;;;0.15;;
72904;SDS011;61048;52.162;4.516;2022-11-04T03:03:36;4.10;;;0.50;;
72904;SDS011;61048;52.162;4.516;2022-11-04T03:06:06;1.27;;;0.25;;
72904;SDS011;61048;52.162;4.516;2022-11-04T03:08:36;1.25;;;0.52;;
72904;SDS011;61048;52.162;4.516;2022-11-04T03:11:07;2.75;;;0.40;;
72904;SDS011;61048;52.162;4.516;2022-11-04T03:13:38;1.60;;;0.30;;
72904;SDS011;61048;52.162;4.516;2022-11-04T03:16:10;1.27;;;0.22;;
72904;SDS011;61048;52.162;4.516;2022-11-04T03:18:42;1.88;;;0.32;;
72904;SDS011;61048;52.162;4.516;2022-11-04T03:21:14;2.15;;;0.45;;
72904;SDS011;61048;52.162;4.516;2022-11-04T03:23:44;1.95;;;0.50;;
72904;SDS011;61048;52.162;4.516;2022-11-04T03:26:11;0.80;;;0.28;;
72904;SDS011;61048;52.162;4.516;2022-11-04T03:28:58;2.15;;;0.32;;
72904;SDS011;61048;52.162;4.516;2022-11-04T03:31:39;2.30;;;0.70;;
72904;SDS011;61048;52.162;4.516;2022-11-04T03:34:10;1.85;;;0.28;;
72904;SDS011;61048;52.162;4.516;2022-11-04T03:36:37;1.27;;;0.30;;
72904;SDS011;61048;52.162;4.516;2022-11-04T03:39:03;2.20;;;0.50;;
72904;SDS011;61048;52.162;4.516;2022-11-04T03:41:31;1.52;;;0.35;;
72904;SDS011;61048;52.162;4.516;2022-11-04T03:44:03;1.85;;;0.30;;
72904;SDS011;61048;52.162;4.516;2022-11-04T03:46:30;1.27;;;0.40;;
72904;SDS011;61048;52.162;4.516;2022-11-04T03:48:59;1.20;;;0.30;;
72904;SDS011;61048;52.162;4.516;2022-11-04T03:51:27;1.95;;;0.60;;
72904;SDS011;61048;52.162;4.516;2022-11-04T03:53:54;2.25;;;0.40;;
72904;SDS011;61048;52.162;4.516;2022-11-04T03:56:34;1.10;;;0.40;;
72904;SDS011;61048;52.162;4.516;2022-11-04T03:59:20;1.98;;;0.57;;
72904;SDS011;61048;52.162;4.516;2022-11-04T04:02:02;1.25;;;0.30;;
72904;SDS011;61048;52.162;4.516;2022-11-04T04:04:36;3.70;;;0.52;;
72904;SDS011;61048;52.162;4.516;2022-11-04T04:07:06;3.10;;;0.40;;
72904;SDS011;61048;52.162;4.516;2022-11-04T04:09:38;4.10;;;0.88;;
72904;SDS011;61048;52.162;4.516;2022-11-04T04:12:12;2.83;;;0.50;;
72904;SDS011;61048;52.162;4.516;2022-11-04T04:14:43;1.92;;;0.60;;
72904;SDS011;61048;52.162;4.516;2022-11-04T04:17:15;2.72;;;0.55;;
72904;SDS011;61048;52.162;4.516;2022-11-04T04:19:47;2.13;;;0.90;;
72904;SDS011;61048;52.162;4.516;2022-11-04T04:22:18;1.95;;;0.63;;
72904;SDS011;61048;52.162;4.516;2022-11-04T04:24:48;3.90;;;0.40;;
72904;SDS011;61048;52.162;4.516;2022-11-04T04:27:35;1.83;;;0.55;;
72904;SDS011;61048;52.162;4.516;2022-11-04T04:30:05;2.30;;;0.93;;
72904;SDS011;61048;52.162;4.516;2022-11-04T04:32:34;1.92;;;0.73;;
72904;SDS011;61048;52.162;4.516;2022-11-04T04:35:06;5.40;;;0.88;;
72904;SDS011;61048;52.162;4.516;2022-11-04T04:37:51;2.58;;;1.00;;
72904;SDS011;61048;52.162;4.516;2022-11-04T04:40:40;3.28;;;0.65;;
72904;SDS011;61048;52.162;4.516;2022-11-04T04:43:27;3.53;;;0.82;;
72904;SDS011;61048;52.162;4.516;2022-11-04T04:46:11;2.22;;;0.63;;
72904;SDS011;61048;52.162;4.516;2022-11-04T04:48:39;2.95;;;0.70;;
72904;SDS011;61048;52.162;4.516;2022-11-04T04:51:07;1.52;;;0.70;;
72904;SDS011;61048;52.162;4.516;2022-11-04T04:53:34;3.40;;;1.00;;
72904;SDS011;61048;52.162;4.516;2022-11-04T04:56:01;1.98;;;0.73;;
72904;SDS011;61048;52.162;4.516;2022-11-04T04:58:28;2.78;;;1.20;;
72904;SDS011;61048;52.162;4.516;2022-11-04T05:00:55;2.33;;;0.82;;
72904;SDS011;61048;52.162;4.516;2022-11-04T05:03:22;1.83;;;0.70;;
72904;SDS011;61048;52.162;4.516;2022-11-04T05:05:49;2.90;;;1.00;;
72904;SDS011;61048;52.162;4.516;2022-11-04T05:08:18;5.13;;;1.08;;
72904;SDS011;61048;52.162;4.516;2022-11-04T05:10:44;2.88;;;0.85;;
72904;SDS011;61048;52.162;4.516;2022-11-04T05:13:11;2.30;;;0.70;;
72904;SDS011;61048;52.162;4.516;2022-11-04T05:15:54;2.08;;;0.73;;
72904;SDS011;61048;52.162;4.516;2022-11-04T05:18:22;1.80;;;0.70;;
72904;SDS011;61048;52.162;4.516;2022-11-04T05:20:49;1.92;;;0.73;;
72904;SDS011;61048;52.162;4.516;2022-11-04T05:23:17;2.13;;;0.60;;
72904;SDS011;61048;52.162;4.516;2022-11-04T05:25:44;1.88;;;1.25;;
72904;SDS011;61048;52.162;4.516;2022-11-04T05:28:11;2.33;;;0.88;;
72904;SDS011;61048;52.162;4.516;2022-11-04T05:30:38;2.22;;;0.75;;
72904;SDS011;61048;52.162;4.516;2022-11-04T05:33:05;2.20;;;0.85;;
72904;SDS011;61048;52.162;4.516;2022-11-04T05:35:32;1.80;;;0.75;;
72904;SDS011;61048;52.162;4.516;2022-11-04T05:38:00;2.03;;;0.55;;
72904;SDS011;61048;52.162;4.516;2022-11-04T05:40:28;2.53;;;0.70;;
72904;SDS011;61048;52.162;4.516;2022-11-04T05:42:56;3.22;;;0.50;;
72904;SDS011;61048;52.162;4.516;2022-11-04T05:45:23;1.58;;;0.50;;
72904;SDS011;61048;52.162;4.516;2022-11-04T05:47:55;1.83;;;1.02;;
72904;SDS011;61048;52.162;4.516;2022-11-04T05:50:23;1.25;;;0.35;;
72904;SDS011;61048;52.162;4.516;2022-11-04T05:52:50;3.45;;;1.08;;
72904;SDS011;61048;52.162;4.516;2022-11-04T05:55:17;1.60;;;0.40;;
72904;SDS011;61048;52.162;4.516;2022-11-04T05:57:45;1.60;;;0.55;;
72904;SDS011;61048;52.162;4.516;2022-11-04T06:00:12;3.05;;;0.50;;
72904;SDS011;61048;52.162;4.516;2022-11-04T06:02:40;1.70;;;0.55;;
72904;SDS011;61048;52.162;4.516;2022-11-04T06:05:07;0.80;;;0.30;;
72904;SDS011;61048;52.162;4.516;2022-11-04T06:07:34;1.08;;;0.30;;
72904;SDS011;61048;52.162;4.516;2022-11-04T06:10:01;1.17;;;0.47;;
72904;SDS011;61048;52.162;4.516;2022-11-04T06:12:28;1.55;;;0.32;;
72904;SDS011;61048;52.162;4.516;2022-11-04T06:14:56;1.55;;;0.80;;
72904;SDS011;61048;52.162;4.516;2022-11-04T06:17:23;1.25;;;0.30;;
72904;SDS011;61048;52.162;4.516;2022-11-04T06:19:50;1.58;;;0.40;;
72904;SDS011;61048;52.162;4.516;2022-11-04T06:22:17;2.25;;;0.30;;
72904;SDS011;61048;52.162;4.516;2022-11-04T06:24:45;1.20;;;0.47;;
72904;SDS011;61048;52.162;4.516;2022-11-04T06:27:11;1.33;;;0.30;;
72904;SDS011;61048;52.162;4.516;2022-11-04T06:29:38;1.17;;;0.60;;
72904;SDS011;61048;52.162;4.516;2022-11-04T06:32:07;1.05;;;0.30;;
72904;SDS011;61048;52.162;4.516;2022-11-04T06:34:35;1.42;;;0.63;;
72904;SDS011;61048;52.162;4.516;2022-11-04T06:37:02;1.10;;;0.30;;
72904;SDS011;61048;52.162;4.516;2022-11-04T06:39:29;1.25;;;0.30;;
72904;SDS011;61048;52.162;4.516;2022-11-04T06:41:56;1.10;;;0.43;;
72904;SDS011;61048;52.162;4.516;2022-11-04T06:44:23;0.75;;;0.35;;
72904;SDS011;61048;52.162;4.516;2022-11-04T06:46:50;2.22;;;0.30;;
72904;SDS011;61048;52.162;4.516;2022-11-04T06:49:18;2.75;;;0.68;;
72904;SDS011;61048;52.162;4.516;2022-11-04T06:51:47;2.83;;;0.30;;
72904;SDS011;61048;52.162;4.516;2022-11-04T06:54:16;1.65;;;0.30;;
72904;SDS011;61048;52.162;4.516;2022-11-04T06:56:43;1.50;;;0.20;;
72904;SDS011;61048;52.162;4.516;2022-11-04T06:59:12;0.52;;;0.20;;
72904;SDS011;61048;52.162;4.516;2022-11-04T07:01:41;1.50;;;0.20;;
72904;SDS011;61048;52.162;4.516;2022-11-04T07:04:08;2.53;;;0.38;;
72904;SDS011;61048;52.162;4.516;2022-11-04T07:06:37;2.83;;;0.30;;
72904;SDS011;61048;52.162;4.516;2022-11-04T07:09:10;0.70;;;0.20;;
72904;SDS011;61048;52.162;4.516;2022-11-04T07:11:38;16.33;;;2.25;;
72904;SDS011;61048;52.162;4.516;2022-11-04T07:14:06;48.85;;;10.35;;
72904;SDS011;61048;52.162;4.516;2022-11-04T07:16:33;52.70;;;10.60;;
72904;SDS011;61048;52.162;4.516;2022-11-04T07:19:00;39.33;;;7.85;;
72904;SDS011;61048;52.162;4.516;2022-11-04T07:21:27;36.55;;;8.48;;
72904;SDS011;61048;52.162;4.516;2022-11-04T07:23:56;44.92;;;8.25;;
72904;SDS011;61048;52.162;4.516;2022-11-04T07:26:23;47.70;;;9.23;;
72904;SDS011;61048;52.162;4.516;2022-11-04T07:28:50;38.85;;;8.77;;
72904;SDS011;61048;52.162;4.516;2022-11-04T07:31:17;35.33;;;7.80;;
72904;SDS011;61048;52.162;4.516;2022-11-04T07:33:44;36.60;;;8.68;;
72904;SDS011;61048;52.162;4.516;2022-11-04T07:36:14;33.05;;;7.43;;
72904;SDS011;61048;52.162;4.516;2022-11-04T07:38:42;35.03;;;8.20;;
72904;SDS011;61048;52.162;4.516;2022-11-04T07:41:10;33.38;;;8.00;;
72904;SDS011;61048;52.162;4.516;2022-11-04T07:43:37;35.17;;;7.63;;
72904;SDS011;61048;52.162;4.516;2022-11-04T07:46:05;29.98;;;7.38;;
72904;SDS011;61048;52.162;4.516;2022-11-04T07:48:32;27.27;;;7.60;;
72904;SDS011;61048;52.162;4.516;2022-11-04T07:51:00;33.35;;;8.10;;
72904;SDS011;61048;52.162;4.516;2022-11-04T07:53:29;30.90;;;6.50;;
72904;SDS011;61048;52.162;4.516;2022-11-04T07:55:56;32.42;;;7.20;;
72904;SDS011;61048;52.162;4.516;2022-11-04T07:58:24;32.33;;;7.47;;
72904;SDS011;61048;52.162;4.516;2022-11-04T08:00:56;32.92;;;7.03;;
72904;SDS011;61048;52.162;4.516;2022-11-04T08:03:24;51.38;;;10.60;;
72904;SDS011;61048;52.162;4.516;2022-11-04T08:05:53;43.30;;;9.13;;
72904;SDS011;61048;52.162;4.516;2022-11-04T08:08:20;53.75;;;11.43;;
72904;SDS011;61048;52.162;4.516;2022-11-04T08:10:50;51.13;;;10.23;;
72904;SDS011;61048;52.162;4.516;2022-11-04T08:13:18;51.40;;;9.98;;
72904;SDS011;61048;52.162;4.516;2022-11-04T08:15:46;34.45;;;8.20;;
72904;SDS011;61048;52.162;4.516;2022-11-04T08:18:13;35.08;;;7.70;;
72904;SDS011;61048;52.162;4.516;2022-11-04T08:20:40;30.88;;;8.52;;
72904;SDS011;61048;52.162;4.516;2022-11-04T08:23:14;28.60;;;6.07;;
72904;SDS011;61048;52.162;4.516;2022-11-04T08:25:41;26.15;;;5.80;;
72904;SDS011;61048;52.162;4.516;2022-11-04T08:28:08;27.52;;;6.20;;
72904;SDS011;61048;52.162;4.516;2022-11-04T08:30:37;22.67;;;5.45;;
72904;SDS011;61048;52.162;4.516;2022-11-04T08:33:05;22.50;;;6.57;;
72904;SDS011;61048;52.162;4.516;2022-11-04T08:35:33;23.48;;;5.78;;
72904;SDS011;61048;52.162;4.516;2022-11-04T08:38:00;20.58;;;5.35;;
72904;SDS011;61048;52.162;4.516;2022-11-04T08:40:27;25.08;;;6.38;;
72904;SDS011;61048;52.162;4.516;2022-11-04T08:42:53;23.60;;;6.82;;
72904;SDS011;61048;52.162;4.516;2022-11-04T08:45:20;25.98;;;6.05;;
72904;SDS011;61048;52.162;4.516;2022-11-04T08:47:47;23.90;;;5.18;;
72904;SDS011;61048;52.162;4.516;2022-11-04T08:50:15;29.70;;;5.72;;
72904;SDS011;61048;52.162;4.516;2022-11-04T08:52:42;24.00;;;5.60;;
72904;SDS011;61048;52.162;4.516;2022-11-04T08:55:09;19.27;;;4.88;;
72904;SDS011;61048;52.162;4.516;2022-11-04T08:57:36;24.48;;;5.78;;
72904;SDS011;61048;52.162;4.516;2022-11-04T09:00:03;24.85;;;5.07;;
72904;SDS011;61048;52.162;4.516;2022-11-04T09:02:31;15.02;;;4.38;;
72904;SDS011;61048;52.162;4.516;2022-11-04T09:04:58;22.85;;;4.38;;
72904;SDS011;61048;52.162;4.516;2022-11-04T09:07:27;15.65;;;4.03;;
72904;SDS011;61048;52.162;4.516;2022-11-04T09:09:54;12.43;;;4.18;;
72904;SDS011;61048;52.162;4.516;2022-11-04T09:12:21;16.75;;;4.18;;
72904;SDS011;61048;52.162;4.516;2022-11-04T09:14:48;16.65;;;4.07;;
72904;SDS011;61048;52.162;4.516;2022-11-04T09:17:14;15.25;;;4.72;;
72904;SDS011;61048;52.162;4.516;2022-11-04T09:19:41;13.77;;;3.63;;
72904;SDS011;61048;52.162;4.516;2022-11-04T09:22:08;12.48;;;3.42;;
72904;SDS011;61048;52.162;4.516;2022-11-04T09:24:36;11.88;;;3.15;;
72904;SDS011;61048;52.162;4.516;2022-11-04T09:27:03;15.95;;;3.78;;
72904;SDS011;61048;52.162;4.516;2022-11-04T09:29:31;13.75;;;3.28;;
72904;SDS011;61048;52.162;4.516;2022-11-04T09:31:58;18.25;;;3.88;;
72904;SDS011;61048;52.162;4.516;2022-11-04T09:34:25;19.30;;;3.70;;
72904;SDS011;61048;52.162;4.516;2022-11-04T09:36:53;16.52;;;3.63;;
72904;SDS011;61048;52.162;4.516;2022-11-04T09:39:21;15.88;;;3.45;;
72904;SDS011;61048;52.162;4.516;2022-11-04T09:44:50;8.07;;;2.35;;
72904;SDS011;61048;52.162;4.516;2022-11-04T09:47:22;11.23;;;2.58;;
72904;SDS011;61048;52.162;4.516;2022-11-04T09:49:51;7.22;;;2.80;;
72904;SDS011;61048;52.162;4.516;2022-11-04T09:52:22;7.97;;;2.33;;
72904;SDS011;61048;52.162;4.516;2022-11-04T09:54:52;7.18;;;2.33;;
72904;SDS011;61048;52.162;4.516;2022-11-04T09:57:24;10.55;;;2.42;;
72904;SDS011;61048;52.162;4.516;2022-11-04T09:59:51;8.75;;;2.40;;
72904;SDS011;61048;52.162;4.516;2022-11-04T10:02:24;9.07;;;2.47;;
72904;SDS011;61048;52.162;4.516;2022-11-04T10:05:00;5.75;;;1.95;;
72904;SDS011;61048;52.162;4.516;2022-11-04T10:07:42;9.18;;;2.50;;
72904;SDS011;61048;52.162;4.516;2022-11-04T10:10:26;8.50;;;2.13;;
72904;SDS011;61048;52.162;4.516;2022-11-04T10:13:05;6.00;;;1.80;;
72904;SDS011;61048;52.162;4.516;2022-11-04T10:15:45;6.20;;;1.77;;
72904;SDS011;61048;52.162;4.516;2022-11-04T10:18:32;7.07;;;2.13;;
72904;SDS011;61048;52.162;4.516;2022-11-04T10:21:10;9.20;;;1.98;;
72904;SDS011;61048;52.162;4.516;2022-11-04T10:23:54;7.25;;;2.03;;
72904;SDS011;61048;52.162;4.516;2022-11-04T10:26:31;6.85;;;1.95;;
72904;SDS011;61048;52.162;4.516;2022-11-04T10:29:10;4.75;;;1.65;;
72904;SDS011;61048;52.162;4.516;2022-11-04T10:31:40;6.70;;;1.75;;
72904;SDS011;61048;52.162;4.516;2022-11-04T10:34:11;6.65;;;1.55;;
72904;SDS011;61048;52.162;4.516;2022-11-04T10:36:48;6.47;;;1.65;;
72904;SDS011;61048;52.162;4.516;2022-11-04T10:39:19;3.83;;;1.40;;
72904;SDS011;61048;52.162;4.516;2022-11-04T10:41:51;6.07;;;1.50;;
72904;SDS011;61048;52.162;4.516;2022-11-04T10:44:20;5.70;;;1.20;;
72904;SDS011;61048;52.162;4.516;2022-11-04T10:46:51;6.25;;;1.08;;
72904;SDS011;61048;52.162;4.516;2022-11-04T10:49:38;5.82;;;1.15;;
72904;SDS011;61048;52.162;4.516;2022-11-04T10:52:11;3.78;;;0.93;;
72904;SDS011;61048;52.162;4.516;2022-11-04T10:54:39;4.72;;;0.60;;
72904;SDS011;61048;52.162;4.516;2022-11-04T10:57:08;3.90;;;1.08;;
72904;SDS011;61048;52.162;4.516;2022-11-04T10:59:41;6.00;;;0.98;;
72904;SDS011;61048;52.162;4.516;2022-11-04T11:02:14;6.45;;;0.75;;
72904;SDS011;61048;52.162;4.516;2022-11-04T11:04:41;3.78;;;0.60;;
72904;SDS011;61048;52.162;4.516;2022-11-04T11:07:11;2.03;;;0.40;;
72904;SDS011;61048;52.162;4.516;2022-11-04T11:09:48;4.80;;;1.02;;
72904;SDS011;61048;52.162;4.516;2022-11-04T11:12:17;2.30;;;0.40;;
72904;SDS011;61048;52.162;4.516;2022-11-04T11:14:55;3.78;;;0.60;;
72904;SDS011;61048;52.162;4.516;2022-11-04T11:17:23;3.20;;;0.68;;
72904;SDS011;61048;52.162;4.516;2022-11-04T11:20:01;2.90;;;0.52;;
72904;SDS011;61048;52.162;4.516;2022-11-04T11:22:36;3.92;;;0.52;;
72904;SDS011;61048;52.162;4.516;2022-11-04T11:25:19;3.38;;;0.50;;
72904;SDS011;61048;52.162;4.516;2022-11-04T11:27:49;3.95;;;1.10;;
72904;SDS011;61048;52.162;4.516;2022-11-04T11:30:19;1.83;;;0.40;;
72904;SDS011;61048;52.162;4.516;2022-11-04T11:32:50;1.55;;;0.32;;
72904;SDS011;61048;52.162;4.516;2022-11-04T11:35:21;2.92;;;0.50;;
72904;SDS011;61048;52.162;4.516;2022-11-04T11:37:50;3.72;;;0.50;;
72904;SDS011;61048;52.162;4.516;2022-11-04T11:40:25;1.73;;;0.40;;
72904;SDS011;61048;52.162;4.516;2022-11-04T11:42:55;3.10;;;0.60;;
72904;SDS011;61048;52.162;4.516;2022-11-04T11:45:25;3.95;;;0.57;;
72904;SDS011;61048;52.162;4.516;2022-11-04T11:47:53;2.55;;;0.30;;
72904;SDS011;61048;52.162;4.516;2022-11-04T11:50:22;3.17;;;0.30;;
72904;SDS011;61048;52.162;4.516;2022-11-04T11:53:05;2.38;;;0.30;;
72904;SDS011;61048;52.162;4.516;2022-11-04T11:55:40;2.03;;;0.40;;
72904;SDS011;61048;52.162;4.516;2022-11-04T11:58:15;3.63;;;0.30;;
72904;SDS011;61048;52.162;4.516;2022-11-04T12:00:52;2.03;;;0.52;;
72904;SDS011;61048;52.162;4.516;2022-11-04T12:03:24;3.50;;;0.70;;
72904;SDS011;61048;52.162;4.516;2022-11-04T12:06:07;0.65;;;0.15;;
72904;SDS011;61048;52.162;4.516;2022-11-04T12:08:50;3.58;;;0.35;;
72904;SDS011;61048;52.162;4.516;2022-11-04T12:11:39;1.30;;;0.10;;
72904;SDS011;61048;52.162;4.516;2022-11-04T12:14:14;2.05;;;0.25;;
72904;SDS011;61048;52.162;4.516;2022-11-04T12:16:47;2.75;;;1.08;;
72904;SDS011;61048;52.162;4.516;2022-11-04T12:19:23;2.40;;;0.20;;
72904;SDS011;61048;52.162;4.516;2022-11-04T12:22:02;1.98;;;0.30;;
72904;SDS011;61048;52.162;4.516;2022-11-04T12:24:40;2.78;;;0.40;;
72904;SDS011;61048;52.162;4.516;2022-11-04T12:27:20;2.28;;;0.60;;
72904;SDS011;61048;52.162;4.516;2022-11-04T12:29:56;1.73;;;0.20;;
72904;SDS011;61048;52.162;4.516;2022-11-04T12:32:39;1.65;;;0.30;;
72904;SDS011;61048;52.162;4.516;2022-11-04T12:35:21;3.10;;;0.30;;
72904;SDS011;61048;52.162;4.516;2022-11-04T12:38:00;1.13;;;0.20;;
72904;SDS011;61048;52.162;4.516;2022-11-04T12:40:40;2.90;;;0.82;;
72904;SDS011;61048;52.162;4.516;2022-11-04T12:43:17;1.75;;;0.40;;
72904;SDS011;61048;52.162;4.516;2022-11-04T12:45:52;2.65;;;0.50;;
72904;SDS011;61048;52.162;4.516;2022-11-04T12:48:31;2.25;;;0.40;;
72904;SDS011;61048;52.162;4.516;2022-11-04T12:51:25;1.55;;;0.30;;
72904;SDS011;61048;52.162;4.516;2022-11-04T12:54:03;1.48;;;0.20;;
72904;SDS011;61048;52.162;4.516;2022-11-04T12:56:44;1.05;;;0.22;;
72904;SDS011;61048;52.162;4.516;2022-11-04T13:02:10;1.52;;;0.25;;
72904;SDS011;61048;52.162;4.516;2022-11-04T13:04:44;3.20;;;0.30;;
72904;SDS011;61048;52.162;4.516;2022-11-04T13:07:15;1.63;;;0.20;;
72904;SDS011;61048;52.162;4.516;2022-11-04T13:09:48;2.10;;;0.40;;
72904;SDS011;61048;52.162;4.516;2022-11-04T13:12:20;3.83;;;0.22;;
72904;SDS011;61048;52.162;4.516;2022-11-04T13:14:49;2.08;;;0.20;;
72904;SDS011;61048;52.162;4.516;2022-11-04T13:17:21;3.28;;;0.45;;
72904;SDS011;61048;52.162;4.516;2022-11-04T13:19:54;1.63;;;0.20;;
72904;SDS011;61048;52.162;4.516;2022-11-04T13:22:27;2.17;;;0.30;;
72904;SDS011;61048;52.162;4.516;2022-11-04T13:24:59;2.78;;;0.80;;
72904;SDS011;61048;52.162;4.516;2022-11-04T13:27:30;1.33;;;0.30;;
72904;SDS011;61048;52.162;4.516;2022-11-04T13:30:03;2.40;;;0.30;;
72904;SDS011;61048;52.162;4.516;2022-11-04T13:32:33;2.55;;;0.52;;
72904;SDS011;61048;52.162;4.516;2022-11-04T13:35:07;2.33;;;0.70;;
72904;SDS011;61048;52.162;4.516;2022-11-04T13:37:43;1.20;;;0.30;;
72904;SDS011;61048;52.162;4.516;2022-11-04T13:40:21;2.10;;;0.30;;
72904;SDS011;61048;52.162;4.516;2022-11-04T13:42:58;1.00;;;0.60;;
72904;SDS011;61048;52.162;4.516;2022-11-04T13:45:53;1.35;;;0.70;;
72904;SDS011;61048;52.162;4.516;2022-11-04T13:48:22;1.83;;;0.40;;
72904;SDS011;61048;52.162;4.516;2022-11-04T13:50:56;1.15;;;0.40;;
72904;SDS011;61048;52.162;4.516;2022-11-04T13:53:39;2.75;;;0.70;;
72904;SDS011;61048;52.162;4.516;2022-11-04T13:56:08;2.05;;;0.30;;
72904;SDS011;61048;52.162;4.516;2022-11-04T13:58:50;0.90;;;0.25;;
72904;SDS011;61048;52.162;4.516;2022-11-04T14:01:24;2.05;;;0.40;;
72904;SDS011;61048;52.162;4.516;2022-11-04T14:03:53;1.92;;;0.40;;
72904;SDS011;61048;52.162;4.516;2022-11-04T14:09:31;2.67;;;0.30;;
72904;SDS011;61048;52.162;4.516;2022-11-04T14:15:04;2.88;;;0.68;;
72904;SDS011;61048;52.162;4.516;2022-11-04T14:18:02;1.77;;;0.60;;
72904;SDS011;61048;52.162;4.516;2022-11-04T14:20:33;1.42;;;0.30;;
72904;SDS011;61048;52.162;4.516;2022-11-04T14:23:04;1.60;;;0.30;;
72904;SDS011;61048;52.162;4.516;2022-11-04T14:25:33;1.58;;;0.55;;
72904;SDS011;61048;52.162;4.516;2022-11-04T14:28:15;2.28;;;0.60;;
72904;SDS011;61048;52.162;4.516;2022-11-04T14:30:44;3.08;;;0.40;;
72904;SDS011;61048;52.162;4.516;2022-11-04T14:33:19;1.70;;;0.40;;
72904;SDS011;61048;52.162;4.516;2022-11-04T14:35:56;1.45;;;0.40;;
72904;SDS011;61048;52.162;4.516;2022-11-04T14:38:42;2.05;;;0.32;;
72904;SDS011;61048;52.162;4.516;2022-11-04T14:41:19;1.73;;;0.30;;
72904;SDS011;61048;52.162;4.516;2022-11-04T14:43:47;1.65;;;0.40;;
72904;SDS011;61048;52.162;4.516;2022-11-04T14:46:18;1.25;;;0.30;;
72904;SDS011;61048;52.162;4.516;2022-11-04T14:48:48;3.50;;;0.30;;
72904;SDS011;61048;52.162;4.516;2022-11-04T14:51:19;1.55;;;0.40;;
72904;SDS011;61048;52.162;4.516;2022-11-04T14:53:51;2.58;;;0.63;;
72904;SDS011;61048;52.162;4.516;2022-11-04T14:56:22;3.92;;;0.73;;
72904;SDS011;61048;52.162;4.516;2022-11-04T14:58:53;2.17;;;0.43;;
72904;SDS011;61048;52.162;4.516;2022-11-04T15:01:22;3.80;;;0.60;;
72904;SDS011;61048;52.162;4.516;2022-11-04T15:03:49;1.70;;;0.50;;
72904;SDS011;61048;52.162;4.516;2022-11-04T15:06:22;3.20;;;0.43;;
72904;SDS011;61048;52.162;4.516;2022-11-04T15:11:19;2.83;;;0.50;;
72904;SDS011;61048;52.162;4.516;2022-11-04T15:14:13;3.20;;;0.60;;
72904;SDS011;61048;52.162;4.516;2022-11-04T15:16:43;5.15;;;0.70;;
72904;SDS011;61048;52.162;4.516;2022-11-04T15:19:13;4.18;;;1.00;;
72904;SDS011;61048;52.162;4.516;2022-11-04T15:21:48;4.45;;;0.90;;
72904;SDS011;61048;52.162;4.516;2022-11-04T15:24:16;6.43;;;1.27;;
72904;SDS011;61048;52.162;4.516;2022-11-04T15:26:47;4.53;;;0.93;;
72904;SDS011;61048;52.162;4.516;2022-11-04T15:29:16;4.72;;;0.77;;
72904;SDS011;61048;52.162;4.516;2022-11-04T15:31:52;3.55;;;0.80;;
72904;SDS011;61048;52.162;4.516;2022-11-04T15:34:21;5.25;;;0.77;;
72904;SDS011;61048;52.162;4.516;2022-11-04T15:36:48;4.28;;;0.98;;
72904;SDS011;61048;52.162;4.516;2022-11-04T15:39:18;7.32;;;1.10;;